createdAt,value
2023-05-06T00:01:10.887Z,101317.25
2023-05-06T00:03:37.804Z,101302.16
2023-05-06T00:06:07.033Z,101290.72
2023-05-06T00:08:33.841Z,101284.94
2023-05-06T00:11:00.519Z,101270.34
2023-05-06T00:13:27.190Z,101212.00
2023-05-06T00:15:54.110Z,101185.72
2023-05-06T00:18:22.535Z,101186.59
2023-05-06T00:20:49.648Z,101157.88
2023-05-06T00:23:16.461Z,101144.22
2023-05-06T00:25:43.149Z,101140.47
2023-05-06T00:28:09.921Z,101131.19
2023-05-06T00:30:36.556Z,101120.38
2023-05-06T00:33:03.402Z,101122.53
2023-05-06T00:35:30.746Z,101116.09
2023-05-06T00:38:12.168Z,101110.44
2023-05-06T00:40:39.088Z,101102.78
2023-05-06T00:43:05.979Z,101081.97
2023-05-06T00:45:33.330Z,101076.91
2023-05-06T00:48:00.796Z,101072.91
2023-05-06T00:50:28.588Z,101064.81
2023-05-06T00:52:58.273Z,101061.41
2023-05-06T00:55:25.480Z,101046.63
2023-05-06T00:57:52.684Z,101044.19
2023-05-06T01:00:20.559Z,101056.72
2023-05-06T01:02:48.547Z,101059.88
2023-05-06T01:05:18.143Z,101055.44
2023-05-06T01:07:59.899Z,101055.13
2023-05-06T01:10:45.188Z,101052.00
2023-05-06T01:13:21.549Z,101015.78
2023-05-06T01:16:02.139Z,101010.56
2023-05-06T01:18:32.420Z,100999.78
2023-05-06T01:21:00.156Z,100985.41
2023-05-06T01:23:28.842Z,100991.59
2023-05-06T01:25:55.487Z,100976.97
2023-05-06T01:28:22.145Z,100972.38
2023-05-06T01:30:54.882Z,100970.00
2023-05-06T01:33:58.566Z,100958.66
2023-05-06T01:36:32.782Z,100952.84
2023-05-06T01:39:12.208Z,100947.19
2023-05-06T01:41:41.751Z,100941.44
2023-05-06T01:44:10.830Z,100941.09
2023-05-06T01:46:37.624Z,100935.34
2023-05-06T01:49:08.169Z,100921.25
2023-05-06T01:51:34.989Z,100915.22
2023-05-06T01:54:02.576Z,100918.38
2023-05-06T01:56:32.747Z,100914.72
2023-05-06T01:58:59.857Z,100913.16
2023-05-06T02:01:27.013Z,100885.03
2023-05-06T02:03:53.833Z,100885.19
2023-05-06T02:06:20.688Z,100879.63
2023-05-06T02:08:47.814Z,100883.81
2023-05-06T02:11:14.621Z,100869.44
2023-05-06T02:13:41.511Z,100855.06
2023-05-06T02:16:08.978Z,100854.19
2023-05-06T02:18:36.053Z,100844.28
2023-05-06T02:21:03.225Z,100854.44
2023-05-06T02:23:30.241Z,100844.00
2023-05-06T02:25:58.130Z,100838.00
2023-05-06T02:28:25.362Z,100836.84
2023-05-06T02:30:56.484Z,100825.53
2023-05-06T02:33:23.800Z,100830.59
2023-05-06T02:35:51.286Z,100823.09
2023-05-06T02:38:18.684Z,100812.72
2023-05-06T02:40:45.422Z,100805.84
2023-05-06T02:43:12.327Z,100808.22
2023-05-06T02:45:39.318Z,100796.88
2023-05-06T02:48:06.537Z,100788.78
2023-05-06T02:50:34.906Z,100799.00
2023-05-06T02:53:01.608Z,100781.91
2023-05-06T02:55:28.353Z,100787.22
2023-05-06T02:57:55.089Z,100775.91
2023-05-06T03:00:21.892Z,100630.56
2023-05-06T03:02:48.653Z,100618.59
2023-05-06T03:05:15.511Z,100608.09
2023-05-06T03:07:42.266Z,100605.69
2023-05-06T03:10:09.468Z,100596.16
2023-05-06T03:12:36.412Z,100583.50
2023-05-06T03:15:03.264Z,100589.19
2023-05-06T03:17:29.996Z,100588.44
2023-05-06T03:19:56.654Z,100573.28
2023-05-06T03:22:23.324Z,100571.84
2023-05-06T03:24:50.095Z,100570.13
2023-05-06T03:27:16.724Z,100559.91
2023-05-06T03:29:43.486Z,100560.19
2023-05-06T03:32:10.169Z,100556.50
2023-05-06T03:34:38.379Z,100547.56
2023-05-06T03:37:05.053Z,100536.78
2023-05-06T03:39:31.677Z,100538.50
2023-05-06T03:41:58.370Z,100528.09
2023-05-06T03:44:25.020Z,100534.47
2023-05-06T03:46:51.645Z,100525.47
2023-05-06T03:49:18.524Z,100524.13
2023-05-06T03:51:45.245Z,100518.06
2023-05-06T03:54:11.974Z,100519.81
2023-05-06T03:56:38.705Z,100507.84
2023-05-06T03:59:05.452Z,100505.34
2023-05-06T04:01:32.138Z,100514.00
2023-05-06T04:03:58.837Z,100501.09
2023-05-06T04:06:26.172Z,100504.56
2023-05-06T04:08:52.883Z,100501.69
2023-05-06T04:11:19.611Z,100461.09
2023-05-06T04:13:46.226Z,100456.56
2023-05-06T04:16:13.824Z,100455.03
2023-05-06T04:18:40.526Z,100449.34
2023-05-06T04:21:07.206Z,100443.53
2023-05-06T04:23:34.103Z,100438.72
2023-05-06T04:26:00.781Z,100449.53
2023-05-06T04:28:27.457Z,100435.00
2023-05-06T04:30:54.197Z,100435.19
2023-05-06T04:33:22.287Z,100444.91
2023-05-06T04:35:59.261Z,100441.16
2023-05-06T04:38:30.308Z,100441.63
2023-05-06T04:40:57.452Z,100436.91
2023-05-06T04:43:24.961Z,100439.13
2023-05-06T04:45:52.761Z,100434.59
2023-05-06T04:48:22.361Z,100438.06
2023-05-06T04:50:50.136Z,100438.66
2023-05-06T04:53:17.360Z,100426.50
2023-05-06T04:55:44.168Z,100428.25
2023-05-06T04:58:10.811Z,100439.44
2023-05-06T05:00:37.526Z,100436.16
2023-05-06T05:03:04.649Z,100438.84
2023-05-06T05:05:33.196Z,100433.25
2023-05-06T05:07:59.966Z,100444.50
2023-05-06T05:10:26.793Z,100425.53
2023-05-06T05:12:53.555Z,100438.16
2023-05-06T05:15:21.282Z,100432.09
2023-05-06T05:17:48.305Z,100433.25
2023-05-06T05:20:15.023Z,100435.25
2023-05-06T05:22:41.732Z,100429.97
2023-05-06T05:25:08.773Z,100434.50
2023-05-06T05:27:35.553Z,100437.38
2023-05-06T05:30:02.264Z,100428.13
2023-05-06T05:32:29.145Z,100432.16
2023-05-06T05:34:56.438Z,100427.34
2023-05-06T05:37:23.224Z,100429.19
2023-05-06T05:39:49.999Z,100428.22
2023-05-06T05:42:17.002Z,100428.72
2023-05-06T05:44:43.832Z,100431.78
2023-05-06T05:47:10.675Z,100422.34
2023-05-06T05:49:37.355Z,100415.91
2023-05-06T05:52:04.311Z,100410.75
2023-05-06T05:54:31.021Z,100416.84
2023-05-06T05:56:58.170Z,100417.44
2023-05-06T05:59:25.328Z,100421.69
2023-05-06T06:01:52.147Z,100418.97
2023-05-06T06:04:21.333Z,100428.03
2023-05-06T06:06:48.102Z,100424.38
2023-05-06T06:09:14.888Z,100428.88
2023-05-06T06:11:41.694Z,100419.56
2023-05-06T06:14:08.372Z,100422.34
2023-05-06T06:16:36.558Z,100429.88
2023-05-06T06:19:03.329Z,100425.34
2023-05-06T06:21:31.252Z,100416.28
2023-05-06T06:23:58.034Z,100420.03
2023-05-06T06:26:24.815Z,100417.25
2023-05-06T06:28:51.452Z,100415.91
2023-05-06T06:31:18.702Z,100423.22
2023-05-06T06:33:45.385Z,100427.66
2023-05-06T06:36:12.064Z,100428.69
2023-05-06T06:38:38.800Z,100436.03
2023-05-06T06:41:05.472Z,100426.97
2023-05-06T06:43:34.942Z,100434.28
2023-05-06T06:46:01.720Z,100432.06
2023-05-06T06:48:28.457Z,100443.47
2023-05-06T06:50:55.516Z,100433.03
2023-05-06T06:53:22.192Z,100433.53
2023-05-06T06:55:48.884Z,100440.19
2023-05-06T06:58:15.529Z,100429.19
2023-05-06T07:00:42.226Z,100435.91
2023-05-06T07:03:08.990Z,100434.78
2023-05-06T07:05:35.697Z,100433.63
2023-05-06T07:08:02.374Z,100437.66
2023-05-06T07:10:29.218Z,100436.31
2023-05-06T07:12:55.955Z,100433.03
2023-05-06T07:15:22.762Z,100431.28
2023-05-06T07:17:49.497Z,100431.97
2023-05-06T07:20:16.360Z,100431.00
2023-05-06T07:22:43.757Z,100428.13
2023-05-06T07:25:10.792Z,100422.78
2023-05-06T07:27:38.001Z,100428.59
2023-05-06T07:30:05.496Z,100427.75
2023-05-06T07:32:32.299Z,100438.13
2023-05-06T07:34:59.027Z,100438.13
2023-05-06T07:37:25.750Z,100431.06
2023-05-06T07:39:52.499Z,100430.25
2023-05-06T07:42:19.221Z,100438.88
2023-05-06T07:44:45.861Z,100443.75
2023-05-06T07:47:14.718Z,100443.19
2023-05-06T07:49:41.408Z,100446.84
2023-05-06T07:52:08.087Z,100461.44
2023-05-06T07:54:34.743Z,100454.19
2023-05-06T07:57:02.381Z,100460.69
2023-05-06T07:59:29.085Z,100467.13
2023-05-06T08:01:55.721Z,100467.63
2023-05-06T08:04:22.684Z,100465.19
2023-05-06T08:06:49.410Z,100478.13
2023-05-06T08:09:22.716Z,100455.03
2023-05-06T08:11:50.671Z,100472.34
2023-05-06T08:14:17.443Z,100472.81
2023-05-06T08:16:44.394Z,100465.38
2023-05-06T08:19:11.460Z,100466.66
2023-05-06T08:21:38.147Z,100462.66
2023-05-06T08:24:04.965Z,100462.50
2023-05-06T08:26:31.597Z,100458.88
2023-05-06T08:28:59.496Z,100460.69
2023-05-06T08:31:26.189Z,100463.78
2023-05-06T08:33:54.602Z,100476.72
2023-05-06T08:36:22.254Z,100477.91
2023-05-06T08:38:50.876Z,100483.31
2023-05-06T08:41:19.977Z,100485.41
2023-05-06T08:43:48.434Z,100484.63
2023-05-06T08:46:15.561Z,100491.38
2023-05-06T08:48:42.759Z,100490.13
2023-05-06T08:51:10.755Z,100481.31
2023-05-06T08:53:39.763Z,100482.91
2023-05-06T08:56:08.881Z,100486.38
2023-05-06T08:58:38.556Z,100488.59
2023-05-06T09:01:06.141Z,100484.06
2023-05-06T09:03:32.920Z,100485.59
2023-05-06T09:05:59.887Z,100480.69
2023-05-06T09:08:26.578Z,100491.69
2023-05-06T09:10:53.269Z,100489.84
2023-05-06T09:13:20.159Z,100491.66
2023-05-06T09:15:49.014Z,100488.47
2023-05-06T09:18:16.632Z,100493.91
2023-05-06T09:20:46.161Z,100492.75
2023-05-06T09:23:14.990Z,100496.41
2023-05-06T09:25:43.271Z,100493.31
2023-05-06T09:28:11.647Z,100495.03
2023-05-06T09:30:43.599Z,100501.81
2023-05-06T09:33:11.473Z,100515.34
2023-05-06T09:35:40.358Z,100522.38
2023-05-06T09:38:07.832Z,100518.31
2023-05-06T09:40:39.058Z,100523.13
2023-05-06T09:43:05.991Z,100519.94
2023-05-06T09:45:33.276Z,100519.53
2023-05-06T09:48:01.142Z,100533.66
2023-05-06T09:50:28.221Z,100526.00
2023-05-06T09:52:56.156Z,100533.53
2023-05-06T09:55:26.637Z,100544.94
2023-05-06T09:57:58.158Z,100542.16
2023-05-06T10:00:28.374Z,100544.09
2023-05-06T10:02:56.041Z,100534.88
2023-05-06T10:05:25.087Z,100533.03
2023-05-06T10:07:54.921Z,100521.59
2023-05-06T10:10:24.177Z,100524.72
2023-05-06T10:12:52.680Z,100535.66
2023-05-06T10:15:19.517Z,100518.69
2023-05-06T10:17:48.947Z,100534.34
2023-05-06T10:20:16.883Z,100538.91
2023-05-06T10:22:59.499Z,100546.06
2023-05-06T10:25:36.482Z,100550.41
2023-05-06T10:28:09.641Z,100545.84
2023-05-06T10:30:53.680Z,100548.72
2023-05-06T10:33:23.427Z,100553.25
2023-05-06T10:36:00.285Z,100567.66
2023-05-06T10:38:32.605Z,100570.50
2023-05-06T10:41:00.556Z,100584.63
2023-05-06T10:43:34.370Z,100596.72
2023-05-06T10:46:13.013Z,100604.38
2023-05-06T10:49:04.778Z,100602.47
2023-05-06T10:51:34.663Z,100612.84
2023-05-06T10:54:21.602Z,100645.78
2023-05-06T10:56:48.256Z,100634.94
2023-05-06T10:59:18.160Z,100648.25
2023-05-06T11:01:45.161Z,100661.22
2023-05-06T11:04:14.010Z,100664.44
2023-05-06T11:06:42.761Z,100673.97
2023-05-06T11:09:23.781Z,100671.69
2023-05-06T11:12:03.806Z,100679.59
2023-05-06T11:14:37.763Z,100688.47
2023-05-06T11:17:06.735Z,100694.00
2023-05-06T11:19:40.294Z,100689.44
2023-05-06T11:22:07.456Z,100697.84
2023-05-06T11:24:42.560Z,100701.41
2023-05-06T11:27:13.617Z,100711.66
2023-05-06T11:29:43.194Z,100711.56
2023-05-06T11:32:25.257Z,100722.66
2023-05-06T11:34:55.918Z,100732.53
2023-05-06T11:37:31.575Z,100744.03
2023-05-06T11:39:58.334Z,100742.09
2023-05-06T11:42:27.749Z,100746.81
2023-05-06T11:44:55.596Z,100754.72
2023-05-06T11:47:23.545Z,100773.78
2023-05-06T11:49:53.518Z,100777.84
2023-05-06T11:52:23.448Z,100780.25
2023-05-06T11:54:54.027Z,100789.91
2023-05-06T11:57:21.045Z,100801.59
2023-05-06T11:59:54.272Z,100815.81
2023-05-06T12:02:21.508Z,100812.59
2023-05-06T12:04:50.126Z,100839.97
2023-05-06T12:07:17.011Z,100842.19
2023-05-06T12:09:47.150Z,100855.63
2023-05-06T12:12:19.972Z,100871.75
2023-05-06T12:14:47.557Z,100877.56
2023-05-06T12:17:14.844Z,100887.59
2023-05-06T12:19:44.307Z,100894.50
2023-05-06T12:22:15.608Z,100918.59
2023-05-06T12:24:42.326Z,100922.03
2023-05-06T12:27:09.118Z,100931.03
2023-05-06T12:29:36.022Z,100943.78
2023-05-06T12:32:14.407Z,100954.59
2023-05-06T12:34:41.601Z,100963.38
2023-05-06T12:37:09.006Z,100971.25
2023-05-06T12:39:40.499Z,100982.28
2023-05-06T12:42:07.234Z,100983.25
2023-05-06T12:44:36.429Z,100987.88
2023-05-06T12:47:24.252Z,101000.47
2023-05-06T12:49:59.140Z,101014.78
2023-05-06T12:52:28.796Z,101018.66
2023-05-06T12:54:56.351Z,101039.13
2023-05-06T12:57:25.481Z,101053.78
2023-05-06T12:59:52.493Z,101052.91
2023-05-06T13:02:19.375Z,101075.84
2023-05-06T13:04:47.168Z,101083.97
2023-05-06T13:07:13.995Z,101088.03
2023-05-06T13:09:40.846Z,101097.31
2023-05-06T13:12:09.851Z,101110.31
2023-05-06T13:14:39.287Z,101109.78
2023-05-06T13:17:07.322Z,101124.22
2023-05-06T13:19:34.212Z,101120.88
2023-05-06T13:22:01.610Z,101126.13
2023-05-06T13:24:29.191Z,101127.75
2023-05-06T13:26:57.119Z,101133.50
2023-05-06T13:29:24.514Z,101145.59
2023-05-06T13:31:51.657Z,101152.41
2023-05-06T13:34:18.765Z,101163.00
2023-05-06T13:36:46.836Z,101158.44
2023-05-06T13:39:13.568Z,101159.16
2023-05-06T13:41:40.322Z,101158.06
2023-05-06T13:44:07.006Z,101160.59
2023-05-06T13:46:34.046Z,101162.44
2023-05-06T13:49:00.808Z,101170.22
2023-05-06T13:51:30.572Z,101172.75
2023-05-06T13:53:57.578Z,101174.13
2023-05-06T13:56:24.443Z,101181.72
2023-05-06T13:58:53.153Z,101173.34
2023-05-06T14:01:21.412Z,101177.78
2023-05-06T14:03:48.522Z,101168.09
2023-05-06T14:06:15.258Z,101258.47
2023-05-06T14:08:42.304Z,101253.25
2023-05-06T14:11:11.819Z,101260.41
2023-05-06T14:13:40.357Z,101264.97
2023-05-06T14:16:07.392Z,101259.63
2023-05-06T14:18:34.169Z,101271.47
2023-05-06T14:21:00.985Z,101272.28
2023-05-06T14:23:27.788Z,101278.28
2023-05-06T14:25:54.521Z,101278.03
2023-05-06T14:28:21.228Z,101272.06
2023-05-06T14:30:48.047Z,101285.09
2023-05-06T14:33:15.052Z,101290.09
2023-05-06T14:35:42.956Z,101299.00
2023-05-06T14:38:10.841Z,101301.63
2023-05-06T14:40:38.861Z,101304.88
2023-05-06T14:43:07.534Z,101308.63
2023-05-06T14:45:34.758Z,101323.84
2023-05-06T14:48:01.631Z,101323.66
2023-05-06T14:50:29.896Z,101327.56
2023-05-06T14:52:56.590Z,101325.56
2023-05-06T14:55:23.468Z,101346.63
2023-05-06T14:57:50.239Z,101348.09
2023-05-06T15:00:17.377Z,101345.31
2023-05-06T15:02:44.280Z,101363.47
2023-05-06T15:05:12.312Z,101351.41
2023-05-06T15:07:39.350Z,101360.34
2023-05-06T15:10:06.880Z,101369.16
2023-05-06T15:12:34.222Z,101370.56
2023-05-06T15:15:00.967Z,101363.81
2023-05-06T15:17:27.853Z,101370.66
2023-05-06T15:19:54.677Z,101364.63
2023-05-06T15:22:21.507Z,101380.78
2023-05-06T15:24:48.315Z,101382.00
2023-05-06T15:27:15.262Z,101391.53
2023-05-06T15:29:44.436Z,101390.47
2023-05-06T15:32:11.294Z,101389.97
2023-05-06T15:34:38.033Z,101402.34
2023-05-06T15:37:04.833Z,101408.22
2023-05-06T15:39:37.386Z,101404.72
2023-05-06T15:42:04.447Z,101412.25
2023-05-06T15:44:32.550Z,101423.66
2023-05-06T15:46:59.275Z,101423.28
2023-05-06T15:49:49.457Z,101431.09
2023-05-06T15:52:12.788Z,101433.31
2023-05-06T15:54:39.982Z,101438.41
2023-05-06T15:57:07.958Z,101444.16
2023-05-06T15:59:34.804Z,101460.72
2023-05-06T16:02:26.075Z,101452.75
2023-05-06T16:04:48.486Z,101461.28
2023-05-06T16:07:15.691Z,101455.53
2023-05-06T16:09:42.964Z,101461.97
2023-05-06T16:12:10.140Z,101465.03
2023-05-06T16:14:37.056Z,101467.25
2023-05-06T16:17:04.019Z,101469.16
2023-05-06T16:19:32.124Z,101473.47
2023-05-06T16:21:58.916Z,101467.31
2023-05-06T16:24:25.683Z,101473.31
2023-05-06T16:26:52.901Z,101465.25
2023-05-06T16:29:20.793Z,101460.56
2023-05-06T16:31:48.923Z,101481.72
2023-05-06T16:34:15.915Z,101470.38
2023-05-06T16:36:43.641Z,101483.41
2023-05-06T16:39:10.469Z,101476.25
2023-05-06T16:41:37.221Z,101483.91
2023-05-06T16:44:04.321Z,101479.75
2023-05-06T16:46:31.121Z,101483.97
2023-05-06T16:48:57.906Z,101486.13
2023-05-06T16:51:24.779Z,101476.00
2023-05-06T16:53:51.548Z,101485.00
2023-05-06T16:56:21.230Z,101488.38
2023-05-06T16:58:48.004Z,101504.06
2023-05-06T17:01:17.894Z,101489.94
2023-05-06T17:03:46.271Z,101479.84
2023-05-06T17:06:13.421Z,101475.84
2023-05-06T17:08:40.164Z,101489.22
2023-05-06T17:11:07.297Z,101467.63
2023-05-06T17:13:34.608Z,101480.31
2023-05-06T17:16:01.384Z,101476.31
2023-05-06T17:18:28.144Z,101481.31
2023-05-06T17:20:56.871Z,101477.66
2023-05-06T17:23:24.747Z,101481.00
2023-05-06T17:25:51.763Z,101481.44
2023-05-06T17:28:19.023Z,101485.50
2023-05-06T17:30:46.510Z,101471.28
2023-05-06T17:33:13.286Z,101483.06
2023-05-06T17:35:40.007Z,101473.31
2023-05-06T17:38:06.922Z,101484.03
2023-05-06T17:40:33.854Z,101483.06
2023-05-06T17:43:00.866Z,101478.78
2023-05-06T17:45:28.567Z,101486.56
2023-05-06T17:47:56.495Z,101475.69
2023-05-06T17:50:23.656Z,101477.06
2023-05-06T17:52:52.347Z,101464.56
2023-05-06T17:55:21.505Z,101463.22
2023-05-06T17:57:48.779Z,101446.25
2023-05-06T18:00:16.745Z,101441.50
2023-05-06T18:02:44.548Z,101436.81
2023-05-06T18:05:11.897Z,101419.59
2023-05-06T18:07:39.292Z,101414.63
2023-05-06T18:10:07.146Z,101414.34
2023-05-06T18:12:34.068Z,101404.22
2023-05-06T18:15:08.729Z,101406.56
2023-05-06T18:17:40.069Z,101390.50
2023-05-06T18:20:08.019Z,101383.44
2023-05-06T18:22:35.106Z,101384.31
2023-05-06T18:25:04.331Z,101366.25
2023-05-06T18:27:32.343Z,101375.34
2023-05-06T18:30:01.419Z,101369.13
2023-05-06T18:32:28.237Z,101358.56
2023-05-06T18:34:54.964Z,101365.91
2023-05-06T18:37:21.665Z,101355.25
2023-05-06T18:39:48.448Z,101357.78
2023-05-06T18:42:15.501Z,101340.75
2023-05-06T18:44:42.929Z,101341.72
2023-05-06T18:47:09.716Z,101331.69
2023-05-06T18:49:36.522Z,101344.66
2023-05-06T18:52:03.469Z,101328.97
2023-05-06T18:54:30.709Z,101325.03
2023-05-06T18:57:01.097Z,101330.28
2023-05-06T18:59:27.882Z,101325.19
2023-05-06T19:01:54.657Z,101323.38
2023-05-06T19:04:21.438Z,101321.34
2023-05-06T19:06:48.239Z,101325.31
2023-05-06T19:09:15.000Z,101318.56
2023-05-06T19:11:41.754Z,101315.44
2023-05-06T19:14:08.749Z,101313.69
2023-05-06T19:16:35.702Z,101312.47
2023-05-06T19:19:03.439Z,101319.09
2023-05-06T19:21:31.393Z,101317.97
2023-05-06T19:23:59.891Z,101320.09
2023-05-06T19:26:29.723Z,101320.50
2023-05-06T19:28:56.452Z,101326.69
2023-05-06T19:31:25.545Z,101325.03
2023-05-06T19:33:54.928Z,101317.19
2023-05-06T19:36:21.644Z,101319.88
2023-05-06T19:38:48.373Z,101316.13
2023-05-06T19:41:15.202Z,101311.41
2023-05-06T19:43:43.644Z,101302.41
2023-05-06T19:46:11.668Z,101307.03
2023-05-06T19:48:39.088Z,101319.97
2023-05-06T19:51:06.722Z,101318.72
2023-05-06T19:53:34.168Z,101315.50
2023-05-06T19:56:14.145Z,101316.81
2023-05-06T19:58:41.063Z,101313.47
2023-05-06T20:01:07.929Z,101324.13
2023-05-06T20:03:35.568Z,101308.41
2023-05-06T20:06:03.926Z,101304.25
2023-05-06T20:08:31.045Z,101311.03
2023-05-06T20:10:58.382Z,101295.41
2023-05-06T20:13:25.364Z,101290.09
2023-05-06T20:15:54.113Z,101278.31
2023-05-06T20:18:23.410Z,101279.56
2023-05-06T20:20:50.154Z,101267.78
2023-05-06T20:23:16.859Z,101273.31
2023-05-06T20:25:43.618Z,101271.03
2023-05-06T20:28:10.434Z,101267.19
2023-05-06T20:30:38.398Z,101262.91
2023-05-06T20:33:05.420Z,101272.06
2023-05-06T20:35:37.961Z,101272.84
2023-05-06T20:38:04.814Z,101267.78
2023-05-06T20:40:33.285Z,101265.09
2023-05-06T20:43:00.403Z,101265.03
2023-05-06T20:45:27.666Z,101273.31
2023-05-06T20:47:54.520Z,101268.31
2023-05-06T20:50:21.332Z,101263.63
2023-05-06T20:52:48.269Z,101263.50
2023-05-06T20:55:15.843Z,101261.53
2023-05-06T20:57:44.173Z,101254.38
2023-05-06T21:00:11.601Z,101259.16
2023-05-06T21:02:41.327Z,101262.38
2023-05-06T21:05:09.840Z,101256.47
2023-05-06T21:07:36.854Z,101255.41
2023-05-06T21:10:05.690Z,101255.41
2023-05-06T21:12:33.552Z,101260.19
2023-05-06T21:15:01.104Z,101257.75
2023-05-06T21:17:28.524Z,101249.81
2023-05-06T21:19:55.493Z,101255.41
2023-05-06T21:22:23.781Z,101259.00
2023-05-06T21:24:51.256Z,101266.03
2023-05-06T21:27:18.255Z,101260.38
2023-05-06T21:29:45.024Z,101260.91
2023-05-06T21:32:11.730Z,101260.47
2023-05-06T21:34:38.406Z,101258.44
2023-05-06T21:37:05.122Z,101257.94
2023-05-06T21:39:31.854Z,101252.78
2023-05-06T21:41:58.648Z,101243.13
2023-05-06T21:44:25.399Z,101243.72
2023-05-06T21:46:52.323Z,101238.47
2023-05-06T21:49:21.298Z,101236.72
2023-05-06T21:51:48.196Z,101228.69
2023-05-06T21:54:16.113Z,101222.75
2023-05-06T21:56:42.864Z,101223.38
2023-05-06T21:59:09.589Z,101226.31
2023-05-06T22:01:36.736Z,101223.09
2023-05-06T22:04:09.365Z,101228.25
2023-05-06T22:06:36.184Z,101223.38
2023-05-06T22:09:04.497Z,101228.34
2023-05-06T22:11:31.213Z,101205.31
2023-05-06T22:13:58.042Z,101205.84
2023-05-06T22:16:24.793Z,101202.78
2023-05-06T22:18:51.830Z,101202.69
2023-05-06T22:21:18.664Z,101197.34
2023-05-06T22:23:45.502Z,101193.28
2023-05-06T22:26:12.282Z,101193.00
2023-05-06T22:28:38.998Z,101201.56
2023-05-06T22:31:05.944Z,101191.09
2023-05-06T22:33:32.820Z,101196.34
2023-05-06T22:35:59.932Z,101182.88
2023-05-06T22:38:26.652Z,101176.25
2023-05-06T22:40:53.364Z,101173.28
2023-05-06T22:43:20.486Z,101174.25
2023-05-06T22:45:48.959Z,101174.25
2023-05-06T22:48:16.634Z,101170.41
2023-05-06T22:50:43.338Z,101171.03
2023-05-06T22:53:14.936Z,101170.06
2023-05-06T22:55:42.399Z,101166.84
2023-05-06T22:58:11.395Z,101163.06
2023-05-06T23:00:38.207Z,101165.25
2023-05-06T23:03:05.972Z,101158.91
2023-05-06T23:05:32.791Z,101156.00
2023-05-06T23:07:59.694Z,101146.31
2023-05-06T23:10:26.838Z,101149.53
2023-05-06T23:12:53.594Z,101149.88
2023-05-06T23:15:20.664Z,101146.22
2023-05-06T23:17:47.407Z,101151.13
2023-05-06T23:20:14.172Z,101138.72
2023-05-06T23:22:40.930Z,101132.19
2023-05-06T23:25:11.832Z,101114.28
2023-05-06T23:27:39.893Z,101120.91
2023-05-06T23:30:08.241Z,101117.34
2023-05-06T23:32:35.171Z,101106.59
2023-05-06T23:35:02.278Z,101097.97
2023-05-06T23:37:29.039Z,101102.31
2023-05-06T23:39:56.940Z,101088.63
2023-05-06T23:42:25.666Z,101088.97
2023-05-06T23:44:55.714Z,101106.94
2023-05-06T23:47:25.605Z,101094.19
2023-05-06T23:49:52.479Z,101086.19
2023-05-06T23:52:19.175Z,101086.09
2023-05-06T23:54:45.938Z,101082.34
2023-05-06T23:57:12.908Z,101076.75
2023-05-06T23:59:39.709Z,101080.69
